sensor_id;sensor_type;location;lat;lon;timestamp;pressure;altitude;pressure_sealevel;temperature;humidity
55550;BME280;41397;49.972;18.944;2022-12-29T00:01:40;101942.28;;;6.46;62.47
55550;BME280;41397;49.972;18.944;2022-12-29T00:04:41;101947.71;;;6.46;62.57
55550;BME280;41397;49.972;18.944;2022-12-29T00:07:42;101943.09;;;6.48;62.43
55550;BME280;41397;49.972;18.944;2022-12-29T00:10:43;101939.55;;;6.46;62.70
55550;BME280;41397;49.972;18.944;2022-12-29T00:13:45;101945.09;;;6.44;62.66
55550;BME280;41397;49.972;18.944;2022-12-29T00:16:59;101943.40;;;6.42;62.73
55550;BME280;41397;49.972;18.944;2022-12-29T00:20:00;101931.70;;;6.40;63.42
55550;BME280;41397;49.972;18.944;2022-12-29T00:23:13;101928.84;;;6.43;62.97
55550;BME280;41397;49.972;18.944;2022-12-29T00:26:26;101923.48;;;6.41;63.05
55550;BME280;41397;49.972;18.944;2022-12-29T00:29:40;101927.64;;;6.30;63.69
55550;BME280;41397;49.972;18.944;2022-12-29T00:32:53;101927.05;;;6.23;63.81
55550;BME280;41397;49.972;18.944;2022-12-29T00:36:16;101910.55;;;6.28;63.42
55550;BME280;41397;49.972;18.944;2022-12-29T00:39:18;101901.63;;;6.24;63.62
55550;BME280;41397;49.972;18.944;2022-12-29T00:42:31;101899.73;;;6.26;63.77
55550;BME280;41397;49.972;18.944;2022-12-29T00:45:45;101894.36;;;6.25;63.35
55550;BME280;41397;49.972;18.944;2022-12-29T00:48:46;101911.63;;;6.23;63.58
55550;BME280;41397;49.972;18.944;2022-12-29T00:52:08;101907.21;;;6.21;63.13
55550;BME280;41397;49.972;18.944;2022-12-29T00:55:10;101896.97;;;6.28;62.88
55550;BME280;41397;49.972;18.944;2022-12-29T00:58:11;101901.23;;;6.33;62.83
55550;BME280;41397;49.972;18.944;2022-12-29T01:01:14;101894.02;;;6.32;62.78
55550;BME280;41397;49.972;18.944;2022-12-29T01:04:15;101894.77;;;6.36;62.49
55550;BME280;41397;49.972;18.944;2022-12-29T01:07:16;101889.19;;;6.39;62.75
55550;BME280;41397;49.972;18.944;2022-12-29T01:10:18;101888.95;;;6.43;62.88
55550;BME280;41397;49.972;18.944;2022-12-29T01:13:22;101889.92;;;6.42;62.65
55550;BME280;41397;49.972;18.944;2022-12-29T01:16:24;101883.41;;;6.47;62.32
55550;BME280;41397;49.972;18.944;2022-12-29T01:19:25;101895.88;;;6.51;62.69
55550;BME280;41397;49.972;18.944;2022-12-29T01:22:27;101895.82;;;6.52;62.47
55550;BME280;41397;49.972;18.944;2022-12-29T01:25:30;101910.20;;;6.54;62.58
55550;BME280;41397;49.972;18.944;2022-12-29T01:28:31;101902.04;;;6.54;62.74
55550;BME280;41397;49.972;18.944;2022-12-29T01:31:32;101913.58;;;6.59;62.69
55550;BME280;41397;49.972;18.944;2022-12-29T01:34:34;101904.55;;;6.59;62.66
55550;BME280;41397;49.972;18.944;2022-12-29T01:37:38;101908.14;;;6.59;62.91
55550;BME280;41397;49.972;18.944;2022-12-29T01:40:46;101908.76;;;6.66;63.11
55550;BME280;41397;49.972;18.944;2022-12-29T01:43:52;101908.96;;;6.61;63.08
55550;BME280;41397;49.972;18.944;2022-12-29T01:46:54;101907.94;;;6.64;63.46
55550;BME280;41397;49.972;18.944;2022-12-29T01:49:59;101917.63;;;6.70;63.64
55550;BME280;41397;49.972;18.944;2022-12-29T01:53:09;101920.30;;;6.71;63.50
55550;BME280;41397;49.972;18.944;2022-12-29T01:56:15;101926.46;;;6.75;63.78
55550;BME280;41397;49.972;18.944;2022-12-29T01:59:23;101918.45;;;6.72;63.42
55550;BME280;41397;49.972;18.944;2022-12-29T02:02:26;101906.09;;;6.64;63.49
55550;BME280;41397;49.972;18.944;2022-12-29T02:05:33;101910.56;;;6.65;63.60
55550;BME280;41397;49.972;18.944;2022-12-29T02:08:38;101903.16;;;6.69;63.77
55550;BME280;41397;49.972;18.944;2022-12-29T02:11:40;101896.85;;;6.69;63.82
55550;BME280;41397;49.972;18.944;2022-12-29T02:14:41;101880.54;;;6.69;63.98
55550;BME280;41397;49.972;18.944;2022-12-29T02:40:25;101858.13;;;6.63;65.09
55550;BME280;41397;49.972;18.944;2022-12-29T02:43:55;101867.16;;;6.64;65.22
55550;BME280;41397;49.972;18.944;2022-12-29T02:53:17;101842.20;;;6.56;65.46
55550;BME280;41397;49.972;18.944;2022-12-29T02:56:31;101841.58;;;6.49;65.47
55550;BME280;41397;49.972;18.944;2022-12-29T02:59:32;101854.39;;;6.47;65.65
55550;BME280;41397;49.972;18.944;2022-12-29T03:05:59;101855.26;;;6.48;65.73
55550;BME280;41397;49.972;18.944;2022-12-29T03:09:10;101842.65;;;6.47;65.86
55550;BME280;41397;49.972;18.944;2022-12-29T03:15:34;101841.74;;;6.46;65.89
55550;BME280;41397;49.972;18.944;2022-12-29T03:22:08;101848.34;;;6.40;65.71
55550;BME280;41397;49.972;18.944;2022-12-29T03:25:29;101857.66;;;6.35;65.94
55550;BME280;41397;49.972;18.944;2022-12-29T03:28:42;101853.26;;;6.32;66.17
55550;BME280;41397;49.972;18.944;2022-12-29T03:31:44;101842.70;;;6.26;66.36
55550;BME280;41397;49.972;18.944;2022-12-29T03:34:49;101834.48;;;6.28;66.11
55550;BME280;41397;49.972;18.944;2022-12-29T03:41:11;101833.66;;;6.26;66.47
55550;BME280;41397;49.972;18.944;2022-12-29T03:44:14;101845.41;;;6.26;66.76
55550;BME280;41397;49.972;18.944;2022-12-29T03:47:16;101840.93;;;6.25;66.45
55550;BME280;41397;49.972;18.944;2022-12-29T03:50:17;101831.97;;;6.23;66.64
55550;BME280;41397;49.972;18.944;2022-12-29T03:53:18;101834.75;;;6.21;66.48
55550;BME280;41397;49.972;18.944;2022-12-29T03:56:19;101824.13;;;6.17;66.39
55550;BME280;41397;49.972;18.944;2022-12-29T03:59:21;101820.64;;;6.13;66.76
55550;BME280;41397;49.972;18.944;2022-12-29T04:02:22;101818.17;;;6.09;66.31
55550;BME280;41397;49.972;18.944;2022-12-29T04:05:24;101825.55;;;6.05;66.29
55550;BME280;41397;49.972;18.944;2022-12-29T04:08:26;101831.48;;;5.94;65.88
55550;BME280;41397;49.972;18.944;2022-12-29T04:11:27;101829.84;;;5.90;66.54
55550;BME280;41397;49.972;18.944;2022-12-29T04:14:28;101828.88;;;5.91;66.53
55550;BME280;41397;49.972;18.944;2022-12-29T04:17:29;101829.67;;;5.95;66.67
55550;BME280;41397;49.972;18.944;2022-12-29T04:20:31;101818.72;;;5.96;66.54
55550;BME280;41397;49.972;18.944;2022-12-29T04:23:46;101811.54;;;5.95;66.41
55550;BME280;41397;49.972;18.944;2022-12-29T04:26:49;101808.95;;;5.92;66.45
55550;BME280;41397;49.972;18.944;2022-12-29T04:29:50;101799.86;;;5.93;66.30
55550;BME280;41397;49.972;18.944;2022-12-29T04:32:51;101793.58;;;5.91;66.28
55550;BME280;41397;49.972;18.944;2022-12-29T04:35:53;101785.58;;;5.88;66.20
55550;BME280;41397;49.972;18.944;2022-12-29T04:38:57;101782.19;;;5.83;66.19
55550;BME280;41397;49.972;18.944;2022-12-29T04:41:58;101779.48;;;5.83;66.37
55550;BME280;41397;49.972;18.944;2022-12-29T04:44:59;101787.77;;;5.80;66.83
55550;BME280;41397;49.972;18.944;2022-12-29T04:48:01;101789.66;;;5.78;66.71
55550;BME280;41397;49.972;18.944;2022-12-29T04:51:05;101788.94;;;5.74;66.82
55550;BME280;41397;49.972;18.944;2022-12-29T04:54:06;101782.91;;;5.68;66.31
55550;BME280;41397;49.972;18.944;2022-12-29T04:57:07;101771.38;;;5.63;67.09
55550;BME280;41397;49.972;18.944;2022-12-29T05:00:10;101770.55;;;5.61;67.53
55550;BME280;41397;49.972;18.944;2022-12-29T05:03:13;101773.48;;;5.56;67.77
55550;BME280;41397;49.972;18.944;2022-12-29T05:06:14;101773.70;;;5.51;68.17
55550;BME280;41397;49.972;18.944;2022-12-29T05:09:16;101787.80;;;5.39;68.89
55550;BME280;41397;49.972;18.944;2022-12-29T05:12:17;101777.82;;;5.40;68.85
55550;BME280;41397;49.972;18.944;2022-12-29T05:15:21;101776.90;;;5.41;68.97
55550;BME280;41397;49.972;18.944;2022-12-29T05:18:22;101767.61;;;5.46;68.89
55550;BME280;41397;49.972;18.944;2022-12-29T05:21:24;101761.83;;;5.54;69.17
55550;BME280;41397;49.972;18.944;2022-12-29T05:24:25;101769.60;;;5.62;68.70
55550;BME280;41397;49.972;18.944;2022-12-29T05:27:29;101767.56;;;5.67;68.61
55550;BME280;41397;49.972;18.944;2022-12-29T05:30:30;101759.02;;;5.76;68.43
55550;BME280;41397;49.972;18.944;2022-12-29T05:33:32;101763.28;;;5.82;68.32
55550;BME280;41397;49.972;18.944;2022-12-29T05:36:33;101761.49;;;5.81;68.10
55550;BME280;41397;49.972;18.944;2022-12-29T05:39:37;101764.30;;;5.79;68.48
55550;BME280;41397;49.972;18.944;2022-12-29T05:42:38;101753.88;;;5.89;68.63
55550;BME280;41397;49.972;18.944;2022-12-29T05:45:40;101764.51;;;5.95;67.98
55550;BME280;41397;49.972;18.944;2022-12-29T05:48:41;101752.85;;;5.91;68.04
55550;BME280;41397;49.972;18.944;2022-12-29T05:51:45;101765.49;;;5.92;68.40
55550;BME280;41397;49.972;18.944;2022-12-29T05:54:46;101753.25;;;6.03;68.27
55550;BME280;41397;49.972;18.944;2022-12-29T05:57:48;101762.22;;;6.05;68.26
55550;BME280;41397;49.972;18.944;2022-12-29T06:00:49;101768.27;;;6.11;67.96
55550;BME280;41397;49.972;18.944;2022-12-29T06:03:53;101771.76;;;6.13;67.93
55550;BME280;41397;49.972;18.944;2022-12-29T06:06:55;101762.38;;;6.20;67.86
55550;BME280;41397;49.972;18.944;2022-12-29T06:09:56;101762.17;;;6.25;67.83
55550;BME280;41397;49.972;18.944;2022-12-29T06:12:57;101760.17;;;6.29;68.02
55550;BME280;41397;49.972;18.944;2022-12-29T06:16:01;101754.59;;;6.32;67.90
55550;BME280;41397;49.972;18.944;2022-12-29T06:19:03;101751.81;;;6.33;67.88
55550;BME280;41397;49.972;18.944;2022-12-29T06:22:04;101758.02;;;6.35;67.50
55550;BME280;41397;49.972;18.944;2022-12-29T06:25:06;101766.99;;;6.37;67.86
55550;BME280;41397;49.972;18.944;2022-12-29T06:28:09;101760.62;;;6.38;67.61
55550;BME280;41397;49.972;18.944;2022-12-29T06:31:11;101742.32;;;6.42;67.40
55550;BME280;41397;49.972;18.944;2022-12-29T06:34:13;101752.97;;;6.47;67.12
55550;BME280;41397;49.972;18.944;2022-12-29T06:37:14;101748.97;;;6.54;67.32
55550;BME280;41397;49.972;18.944;2022-12-29T06:40:17;101742.51;;;6.56;66.98
55550;BME280;41397;49.972;18.944;2022-12-29T06:43:19;101723.16;;;6.62;66.96
55550;BME280;41397;49.972;18.944;2022-12-29T06:46:20;101720.94;;;6.71;66.76
55550;BME280;41397;49.972;18.944;2022-12-29T06:49:22;101722.47;;;6.76;66.61
55550;BME280;41397;49.972;18.944;2022-12-29T06:52:25;101727.45;;;6.85;66.63
55550;BME280;41397;49.972;18.944;2022-12-29T06:55:26;101711.69;;;6.92;66.60
55550;BME280;41397;49.972;18.944;2022-12-29T06:58:29;101719.29;;;7.03;66.36
55550;BME280;41397;49.972;18.944;2022-12-29T07:01:30;101715.36;;;7.08;66.17
55550;BME280;41397;49.972;18.944;2022-12-29T07:04:33;101724.27;;;7.12;66.33
55550;BME280;41397;49.972;18.944;2022-12-29T07:07:34;101726.49;;;7.21;65.89
55550;BME280;41397;49.972;18.944;2022-12-29T07:10:36;101719.77;;;7.28;65.92
55550;BME280;41397;49.972;18.944;2022-12-29T07:13:37;101720.25;;;7.37;65.81
55550;BME280;41397;49.972;18.944;2022-12-29T07:16:41;101729.18;;;7.39;66.11
55550;BME280;41397;49.972;18.944;2022-12-29T07:19:43;101732.55;;;7.44;65.92
55550;BME280;41397;49.972;18.944;2022-12-29T07:22:45;101732.38;;;7.47;66.25
55550;BME280;41397;49.972;18.944;2022-12-29T07:25:48;101733.11;;;7.50;66.29
55550;BME280;41397;49.972;18.944;2022-12-29T07:28:49;101741.98;;;7.54;66.00
55550;BME280;41397;49.972;18.944;2022-12-29T07:31:50;101738.74;;;7.63;65.84
55550;BME280;41397;49.972;18.944;2022-12-29T07:34:52;101732.02;;;7.70;65.89
55550;BME280;41397;49.972;18.944;2022-12-29T07:37:56;101732.83;;;7.72;65.53
55550;BME280;41397;49.972;18.944;2022-12-29T07:40:57;101737.92;;;7.78;65.65
55550;BME280;41397;49.972;18.944;2022-12-29T07:43:59;101745.85;;;7.83;65.57
55550;BME280;41397;49.972;18.944;2022-12-29T07:47:00;101743.89;;;7.85;65.73
55550;BME280;41397;49.972;18.944;2022-12-29T07:50:02;101741.80;;;7.90;65.80
55550;BME280;41397;49.972;18.944;2022-12-29T07:53:05;101750.84;;;7.91;65.89
55550;BME280;41397;49.972;18.944;2022-12-29T07:56:06;101744.27;;;7.95;65.94
55550;BME280;41397;49.972;18.944;2022-12-29T07:59:08;101743.05;;;8.00;65.94
55550;BME280;41397;49.972;18.944;2022-12-29T08:02:12;101749.20;;;8.04;65.85
55550;BME280;41397;49.972;18.944;2022-12-29T08:05:13;101754.83;;;8.01;65.72
55550;BME280;41397;49.972;18.944;2022-12-29T08:08:15;101758.01;;;8.09;65.89
55550;BME280;41397;49.972;18.944;2022-12-29T08:11:17;101745.00;;;8.14;65.78
55550;BME280;41397;49.972;18.944;2022-12-29T08:14:18;101750.21;;;8.19;65.74
55550;BME280;41397;49.972;18.944;2022-12-29T08:17:22;101745.27;;;8.26;65.51
55550;BME280;41397;49.972;18.944;2022-12-29T08:20:23;101742.55;;;8.26;65.42
55550;BME280;41397;49.972;18.944;2022-12-29T08:23:24;101749.78;;;8.27;65.69
55550;BME280;41397;49.972;18.944;2022-12-29T08:26:26;101755.48;;;8.22;65.79
55550;BME280;41397;49.972;18.944;2022-12-29T08:29:29;101761.02;;;8.36;65.60
55550;BME280;41397;49.972;18.944;2022-12-29T08:32:31;101749.53;;;8.47;65.14
55550;BME280;41397;49.972;18.944;2022-12-29T08:35:32;101737.76;;;8.47;65.15
55550;BME280;41397;49.972;18.944;2022-12-29T08:38:33;101737.57;;;8.50;65.04
55550;BME280;41397;49.972;18.944;2022-12-29T08:41:37;101745.74;;;8.50;64.97
55550;BME280;41397;49.972;18.944;2022-12-29T08:44:39;101734.05;;;8.48;64.98
55550;BME280;41397;49.972;18.944;2022-12-29T08:47:40;101732.99;;;8.50;65.14
55550;BME280;41397;49.972;18.944;2022-12-29T08:50:43;101715.69;;;8.51;65.28
55550;BME280;41397;49.972;18.944;2022-12-29T08:53:45;101713.83;;;8.52;65.09
55550;BME280;41397;49.972;18.944;2022-12-29T08:56:46;101706.96;;;8.60;65.27
55550;BME280;41397;49.972;18.944;2022-12-29T08:59:49;101716.11;;;8.59;65.22
55550;BME280;41397;49.972;18.944;2022-12-29T09:02:50;101720.40;;;8.63;65.28
55550;BME280;41397;49.972;18.944;2022-12-29T09:05:54;101726.29;;;8.72;65.14
55550;BME280;41397;49.972;18.944;2022-12-29T09:08:55;101724.96;;;8.79;64.91
55550;BME280;41397;49.972;18.944;2022-12-29T09:11:57;101728.30;;;8.84;64.79
55550;BME280;41397;49.972;18.944;2022-12-29T09:14:58;101730.66;;;8.90;64.65
55550;BME280;41397;49.972;18.944;2022-12-29T09:18:01;101721.72;;;9.02;64.92
55550;BME280;41397;49.972;18.944;2022-12-29T09:21:04;101722.05;;;9.12;64.50
55550;BME280;41397;49.972;18.944;2022-12-29T09:24:05;101716.89;;;9.22;64.60
55550;BME280;41397;49.972;18.944;2022-12-29T09:27:07;101721.41;;;9.37;64.31
55550;BME280;41397;49.972;18.944;2022-12-29T09:30:11;101720.27;;;9.41;63.90
55550;BME280;41397;49.972;18.944;2022-12-29T09:33:13;101714.61;;;9.44;63.77
55550;BME280;41397;49.972;18.944;2022-12-29T09:36:14;101714.61;;;9.44;64.05
55550;BME280;41397;49.972;18.944;2022-12-29T09:39:15;101719.69;;;9.50;64.15
55550;BME280;41397;49.972;18.944;2022-12-29T09:42:23;101722.23;;;9.68;63.90
55550;BME280;41397;49.972;18.944;2022-12-29T09:45:40;101730.80;;;9.76;63.80
55550;BME280;41397;49.972;18.944;2022-12-29T09:48:47;101734.92;;;9.83;63.79
55550;BME280;41397;49.972;18.944;2022-12-29T09:51:53;101727.90;;;9.93;63.69
55550;BME280;41397;49.972;18.944;2022-12-29T09:54:58;101720.05;;;10.16;63.88
55550;BME280;41397;49.972;18.944;2022-12-29T10:04:33;101724.31;;;10.49;62.47
55550;BME280;41397;49.972;18.944;2022-12-29T10:07:42;101724.73;;;10.70;62.48
55550;BME280;41397;49.972;18.944;2022-12-29T10:14:07;101711.44;;;10.91;61.65
55550;BME280;41397;49.972;18.944;2022-12-29T10:20:47;101699.09;;;10.98;61.40
55550;BME280;41397;49.972;18.944;2022-12-29T10:23:47;101695.27;;;11.00;61.41
55550;BME280;41397;49.972;18.944;2022-12-29T10:26:51;101691.76;;;10.98;61.70
55550;BME280;41397;49.972;18.944;2022-12-29T10:29:58;101702.13;;;10.93;61.98
55550;BME280;41397;49.972;18.944;2022-12-29T10:33:06;101698.45;;;10.94;61.73
55550;BME280;41397;49.972;18.944;2022-12-29T10:36:27;101701.05;;;10.96;61.54
55550;BME280;41397;49.972;18.944;2022-12-29T10:39:37;101688.84;;;11.14;61.35
55550;BME280;41397;49.972;18.944;2022-12-29T10:42:45;101670.79;;;11.24;61.29
55550;BME280;41397;49.972;18.944;2022-12-29T10:45:47;101670.21;;;11.32;60.47
55550;BME280;41397;49.972;18.944;2022-12-29T10:48:49;101686.56;;;11.46;61.01
55550;BME280;41397;49.972;18.944;2022-12-29T10:51:51;101668.59;;;11.55;60.27
55550;BME280;41397;49.972;18.944;2022-12-29T10:54:59;101662.98;;;11.56;59.84
55550;BME280;41397;49.972;18.944;2022-12-29T10:58:11;101660.14;;;11.58;60.09
55550;BME280;41397;49.972;18.944;2022-12-29T11:01:13;101670.87;;;11.48;59.78
55550;BME280;41397;49.972;18.944;2022-12-29T11:04:27;101667.95;;;11.51;60.22
55550;BME280;41397;49.972;18.944;2022-12-29T11:07:30;101660.23;;;11.56;59.71
55550;BME280;41397;49.972;18.944;2022-12-29T11:10:38;101652.93;;;11.57;59.88
55550;BME280;41397;49.972;18.944;2022-12-29T11:13:48;101648.09;;;11.61;59.71
55550;BME280;41397;49.972;18.944;2022-12-29T11:16:57;101649.41;;;11.55;59.62
55550;BME280;41397;49.972;18.944;2022-12-29T11:19:58;101664.11;;;11.54;59.67
55550;BME280;41397;49.972;18.944;2022-12-29T11:23:00;101663.97;;;11.43;59.90
55550;BME280;41397;49.972;18.944;2022-12-29T11:32:29;101675.16;;;11.52;60.15
55550;BME280;41397;49.972;18.944;2022-12-29T11:35:35;101674.16;;;11.53;60.38
55550;BME280;41397;49.972;18.944;2022-12-29T11:38:40;101675.06;;;11.54;60.03
55550;BME280;41397;49.972;18.944;2022-12-29T11:41:51;101675.71;;;11.45;60.11
55550;BME280;41397;49.972;18.944;2022-12-29T11:44:52;101676.15;;;11.39;60.66
55550;BME280;41397;49.972;18.944;2022-12-29T11:48:00;101671.09;;;11.45;60.23
55550;BME280;41397;49.972;18.944;2022-12-29T11:51:03;101678.64;;;11.29;60.22
55550;BME280;41397;49.972;18.944;2022-12-29T11:54:06;101671.22;;;11.44;60.36
55550;BME280;41397;49.972;18.944;2022-12-29T11:57:17;101665.30;;;11.50;60.32
55550;BME280;41397;49.972;18.944;2022-12-29T12:00:24;101675.61;;;11.46;60.43
55550;BME280;41397;49.972;18.944;2022-12-29T12:03:27;101669.26;;;11.33;60.17
55550;BME280;41397;49.972;18.944;2022-12-29T12:06:36;101675.48;;;11.22;60.83
55550;BME280;41397;49.972;18.944;2022-12-29T12:09:49;101676.81;;;11.29;60.73
55550;BME280;41397;49.972;18.944;2022-12-29T12:12:58;101681.73;;;11.24;60.44
55550;BME280;41397;49.972;18.944;2022-12-29T12:16:25;101678.76;;;11.40;61.12
55550;BME280;41397;49.972;18.944;2022-12-29T12:19:25;101680.09;;;11.47;60.86
55550;BME280;41397;49.972;18.944;2022-12-29T12:25:48;101689.63;;;11.54;60.58
55550;BME280;41397;49.972;18.944;2022-12-29T12:28:56;101684.25;;;11.53;60.51
55550;BME280;41397;49.972;18.944;2022-12-29T12:32:05;101677.80;;;11.54;60.39
55550;BME280;41397;49.972;18.944;2022-12-29T12:35:16;101676.58;;;11.45;60.25
55550;BME280;41397;49.972;18.944;2022-12-29T12:38:37;101677.26;;;11.49;60.30
55550;BME280;41397;49.972;18.944;2022-12-29T12:41:46;101679.53;;;11.42;59.95
55550;BME280;41397;49.972;18.944;2022-12-29T13:07:32;101669.45;;;11.17;60.97
55550;BME280;41397;49.972;18.944;2022-12-29T13:10:41;101658.72;;;11.14;60.84
55550;BME280;41397;49.972;18.944;2022-12-29T13:14:37;101660.90;;;11.09;61.22
55550;BME280;41397;49.972;18.944;2022-12-29T13:23:38;101651.70;;;10.97;60.95
55550;BME280;41397;49.972;18.944;2022-12-29T13:26:49;101655.18;;;10.99;61.14
55550;BME280;41397;49.972;18.944;2022-12-29T13:30:00;101662.87;;;10.94;61.08
55550;BME280;41397;49.972;18.944;2022-12-29T13:36:27;101660.09;;;10.81;61.39
55550;BME280;41397;49.972;18.944;2022-12-29T13:39:40;101657.57;;;10.78;61.81
55550;BME280;41397;49.972;18.944;2022-12-29T13:42:46;101663.05;;;10.78;61.21
55550;BME280;41397;49.972;18.944;2022-12-29T13:49:06;101647.40;;;10.80;61.17
55550;BME280;41397;49.972;18.944;2022-12-29T13:55:32;101644.19;;;10.74;61.08
55550;BME280;41397;49.972;18.944;2022-12-29T13:58:45;101642.20;;;10.63;61.24
55550;BME280;41397;49.972;18.944;2022-12-29T14:05:26;101644.41;;;10.71;60.97
55550;BME280;41397;49.972;18.944;2022-12-29T14:08:16;101652.17;;;10.64;61.03
55550;BME280;41397;49.972;18.944;2022-12-29T14:11:22;101649.79;;;10.72;61.23
55550;BME280;41397;49.972;18.944;2022-12-29T14:14:29;101660.30;;;10.78;61.30
55550;BME280;41397;49.972;18.944;2022-12-29T14:17:31;101667.65;;;10.78;61.49
55550;BME280;41397;49.972;18.944;2022-12-29T14:20:33;101665.00;;;10.76;61.25
55550;BME280;41397;49.972;18.944;2022-12-29T14:23:42;101658.30;;;10.68;61.56
55550;BME280;41397;49.972;18.944;2022-12-29T14:26:44;101649.01;;;10.70;61.79
55550;BME280;41397;49.972;18.944;2022-12-29T14:29:48;101638.16;;;10.69;61.40
55550;BME280;41397;49.972;18.944;2022-12-29T14:42:29;101643.63;;;10.56;61.81
55550;BME280;41397;49.972;18.944;2022-12-29T14:45:31;101648.60;;;10.49;61.71
55550;BME280;41397;49.972;18.944;2022-12-29T14:48:43;101648.73;;;10.48;61.84
55550;BME280;41397;49.972;18.944;2022-12-29T14:51:46;101660.84;;;10.43;62.53
55550;BME280;41397;49.972;18.944;2022-12-29T14:54:58;101654.38;;;10.44;62.70
55550;BME280;41397;49.972;18.944;2022-12-29T14:58:02;101661.70;;;10.44;62.79
55550;BME280;41397;49.972;18.944;2022-12-29T15:01:28;101663.79;;;10.40;62.87
55550;BME280;41397;49.972;18.944;2022-12-29T15:04:31;101663.30;;;10.34;62.83
55550;BME280;41397;49.972;18.944;2022-12-29T15:07:33;101666.45;;;10.28;62.88
55550;BME280;41397;49.972;18.944;2022-12-29T15:10:40;101671.11;;;10.26;62.94
55550;BME280;41397;49.972;18.944;2022-12-29T15:13:45;101668.91;;;10.18;62.89
55550;BME280;41397;49.972;18.944;2022-12-29T15:16:47;101680.21;;;10.12;63.52
55550;BME280;41397;49.972;18.944;2022-12-29T15:19:49;101678.27;;;10.14;63.43
55550;BME280;41397;49.972;18.944;2022-12-29T15:26:05;101682.77;;;10.00;63.76
55550;BME280;41397;49.972;18.944;2022-12-29T15:32:28;101676.94;;;9.92;64.20
55550;BME280;41397;49.972;18.944;2022-12-29T15:35:35;101673.82;;;9.84;64.34
55550;BME280;41397;49.972;18.944;2022-12-29T15:38:37;101665.05;;;9.79;64.69
55550;BME280;41397;49.972;18.944;2022-12-29T15:41:52;101668.09;;;9.74;64.87
55550;BME280;41397;49.972;18.944;2022-12-29T15:45:05;101670.32;;;9.68;65.14
55550;BME280;41397;49.972;18.944;2022-12-29T15:48:16;101675.20;;;9.63;65.45
55550;BME280;41397;49.972;18.944;2022-12-29T15:51:25;101680.97;;;9.58;65.28
55550;BME280;41397;49.972;18.944;2022-12-29T15:54:31;101676.98;;;9.49;65.61
55550;BME280;41397;49.972;18.944;2022-12-29T15:57:41;101675.41;;;9.45;65.71
55550;BME280;41397;49.972;18.944;2022-12-29T16:00:51;101674.53;;;9.45;65.67
55550;BME280;41397;49.972;18.944;2022-12-29T16:03:54;101666.73;;;9.39;66.08
55550;BME280;41397;49.972;18.944;2022-12-29T16:06:59;101670.53;;;9.36;65.83
55550;BME280;41397;49.972;18.944;2022-12-29T16:10:02;101664.48;;;9.31;66.15
55550;BME280;41397;49.972;18.944;2022-12-29T16:13:24;101668.87;;;9.33;66.02
55550;BME280;41397;49.972;18.944;2022-12-29T16:16:31;101668.87;;;9.33;66.13
55550;BME280;41397;49.972;18.944;2022-12-29T16:19:40;101669.74;;;9.34;66.33
55550;BME280;41397;49.972;18.944;2022-12-29T16:22:47;101674.42;;;9.32;66.08
55550;BME280;41397;49.972;18.944;2022-12-29T16:25:50;101681.05;;;9.28;66.54
55550;BME280;41397;49.972;18.944;2022-12-29T16:28:57;101691.18;;;9.26;66.46
55550;BME280;41397;49.972;18.944;2022-12-29T16:32:00;101687.77;;;9.22;66.59
55550;BME280;41397;49.972;18.944;2022-12-29T16:38:18;101682.39;;;9.21;66.65
55550;BME280;41397;49.972;18.944;2022-12-29T16:41:29;101694.10;;;9.23;66.68
55550;BME280;41397;49.972;18.944;2022-12-29T16:44:30;101694.30;;;9.20;66.82
55550;BME280;41397;49.972;18.944;2022-12-29T16:47:32;101687.06;;;9.19;67.08
55550;BME280;41397;49.972;18.944;2022-12-29T16:50:35;101688.84;;;9.20;67.14
55550;BME280;41397;49.972;18.944;2022-12-29T16:53:38;101689.99;;;9.16;66.99
55550;BME280;41397;49.972;18.944;2022-12-29T16:56:43;101690.98;;;9.15;67.09
55550;BME280;41397;49.972;18.944;2022-12-29T16:59:45;101688.43;;;9.11;67.29
55550;BME280;41397;49.972;18.944;2022-12-29T17:02:48;101687.64;;;9.09;67.19
55550;BME280;41397;49.972;18.944;2022-12-29T17:05:50;101680.59;;;9.05;67.36
55550;BME280;41397;49.972;18.944;2022-12-29T17:08:51;101677.00;;;9.05;67.24
55550;BME280;41397;49.972;18.944;2022-12-29T17:12:00;101682.65;;;9.02;67.45
55550;BME280;41397;49.972;18.944;2022-12-29T17:15:14;101707.47;;;8.97;67.67
55550;BME280;41397;49.972;18.944;2022-12-29T17:18:16;101701.55;;;8.75;67.88
55550;BME280;41397;49.972;18.944;2022-12-29T17:21:17;101690.20;;;8.82;67.94
55550;BME280;41397;49.972;18.944;2022-12-29T17:24:19;101697.77;;;8.77;68.09
55550;BME280;41397;49.972;18.944;2022-12-29T17:27:24;101706.40;;;8.70;68.31
55550;BME280;41397;49.972;18.944;2022-12-29T17:30:32;101682.91;;;8.67;68.49
55550;BME280;41397;49.972;18.944;2022-12-29T17:33:38;101681.17;;;8.66;68.50
55550;BME280;41397;49.972;18.944;2022-12-29T17:36:43;101685.76;;;8.65;68.23
55550;BME280;41397;49.972;18.944;2022-12-29T17:39:44;101679.50;;;8.63;68.56
55550;BME280;41397;49.972;18.944;2022-12-29T17:42:48;101682.30;;;8.62;68.68
55550;BME280;41397;49.972;18.944;2022-12-29T17:45:54;101677.14;;;8.57;68.69
55550;BME280;41397;49.972;18.944;2022-12-29T17:48:56;101679.95;;;8.56;68.90
55550;BME280;41397;49.972;18.944;2022-12-29T17:51:58;101679.16;;;8.54;68.95
55550;BME280;41397;49.972;18.944;2022-12-29T17:54:59;101681.45;;;8.45;69.09
55550;BME280;41397;49.972;18.944;2022-12-29T17:58:01;101675.24;;;8.43;69.05
55550;BME280;41397;49.972;18.944;2022-12-29T18:01:03;101676.00;;;8.45;69.44
55550;BME280;41397;49.972;18.944;2022-12-29T18:04:16;101683.30;;;8.45;69.49
55550;BME280;41397;49.972;18.944;2022-12-29T18:07:18;101692.48;;;8.44;69.44
55550;BME280;41397;49.972;18.944;2022-12-29T18:10:21;101697.63;;;8.33;69.70